createdAt,value
2023-05-28T00:02:07.719Z,2.55
2023-05-28T00:05:09.918Z,2.57
2023-05-28T00:08:12.014Z,2.43
2023-05-28T00:11:13.948Z,2.88
2023-05-28T00:14:15.854Z,2.28
2023-05-28T00:17:18.125Z,2.30
2023-05-28T00:20:21.502Z,2.17
2023-05-28T00:23:24.068Z,2.57
2023-05-28T00:26:27.096Z,2.05
2023-05-28T00:29:29.232Z,2.72
2023-05-28T00:32:31.128Z,2.40
2023-05-28T00:35:33.068Z,2.53
2023-05-28T00:38:34.936Z,2.80
2023-05-28T00:41:37.658Z,2.40
2023-05-28T00:44:40.584Z,2.47
2023-05-28T00:47:42.849Z,2.50
2023-05-28T00:50:44.838Z,2.67
2023-05-28T00:53:46.675Z,2.37
2023-05-28T00:56:50.122Z,2.67
2023-05-28T00:59:53.376Z,2.58
2023-05-28T01:02:55.433Z,2.38
2023-05-28T01:05:57.516Z,2.27
2023-05-28T01:08:59.588Z,2.60
2023-05-28T01:12:02.062Z,2.30
2023-05-28T01:15:04.214Z,2.47
2023-05-28T01:18:07.693Z,1.98
2023-05-28T01:21:09.704Z,2.47
2023-05-28T01:24:11.957Z,2.47
2023-05-28T01:27:14.208Z,2.25
2023-05-28T01:30:16.281Z,2.58
2023-05-28T01:33:19.548Z,2.50
2023-05-28T01:36:37.353Z,2.73
2023-05-28T01:39:43.429Z,2.60
2023-05-28T01:42:46.798Z,2.35
2023-05-28T01:45:48.816Z,2.63
2023-05-28T01:48:50.848Z,2.75
2023-05-28T01:51:53.036Z,2.73
2023-05-28T01:54:54.891Z,2.37
2023-05-28T01:57:57.328Z,2.97
2023-05-28T02:01:20.172Z,2.60
2023-05-28T02:04:22.242Z,2.47
2023-05-28T02:07:24.179Z,2.40
2023-05-28T02:10:26.441Z,2.67
2023-05-28T02:13:28.975Z,2.30
2023-05-28T02:16:31.195Z,2.70
2023-05-28T02:19:34.068Z,2.45
2023-05-28T02:22:35.957Z,2.63
2023-05-28T02:25:37.794Z,2.60
2023-05-28T02:28:39.754Z,2.33
2023-05-28T02:31:42.084Z,2.63
2023-05-28T02:34:44.024Z,2.45
2023-05-28T02:37:45.892Z,2.90
2023-05-28T02:40:47.806Z,2.40
2023-05-28T02:43:49.753Z,2.38
2023-05-28T02:46:51.629Z,2.50
2023-05-28T02:49:53.664Z,2.67
2023-05-28T02:52:55.860Z,2.60
2023-05-28T02:55:57.742Z,2.53
2023-05-28T02:58:59.674Z,2.97
2023-05-28T03:02:01.527Z,2.42
2023-05-28T03:05:03.577Z,2.60
2023-05-28T03:08:05.585Z,2.30
2023-05-28T03:11:07.443Z,2.40
2023-05-28T03:14:09.482Z,2.50
2023-05-28T03:17:11.420Z,2.47
2023-05-28T03:20:13.401Z,3.00
2023-05-28T03:23:15.353Z,2.37
2023-05-28T03:26:17.489Z,2.20
2023-05-28T03:29:19.995Z,2.67
2023-05-28T03:32:22.016Z,2.30
2023-05-28T03:35:24.035Z,2.80
2023-05-28T03:38:25.940Z,2.50
2023-05-28T03:41:28.062Z,2.50
2023-05-28T03:44:30.006Z,3.10
2023-05-28T03:47:33.207Z,2.40
2023-05-28T03:50:35.189Z,2.15
2023-05-28T03:53:37.598Z,2.53
2023-05-28T03:56:39.447Z,2.53
2023-05-28T03:59:41.460Z,2.70
2023-05-28T04:02:43.512Z,3.05
2023-05-28T04:05:45.430Z,2.40
2023-05-28T04:08:47.589Z,2.30
2023-05-28T04:11:49.396Z,2.40
2023-05-28T04:14:51.309Z,2.40
2023-05-28T04:17:53.269Z,2.72
2023-05-28T04:20:55.118Z,2.67
2023-05-28T04:23:57.058Z,2.20
2023-05-28T04:27:00.584Z,2.50
2023-05-28T04:30:02.582Z,2.50
2023-05-28T04:33:04.668Z,2.70
2023-05-28T04:36:09.816Z,2.58
2023-05-28T04:39:11.777Z,2.97
2023-05-28T04:42:18.229Z,2.33
2023-05-28T04:45:20.195Z,2.67
2023-05-28T04:48:24.077Z,2.30
2023-05-28T04:51:26.279Z,2.20
2023-05-28T04:54:28.077Z,2.10
2023-05-28T04:57:29.957Z,2.00
2023-05-28T05:00:32.594Z,2.38
2023-05-28T05:03:34.520Z,2.42
2023-05-28T05:06:37.119Z,2.40
2023-05-28T05:09:39.059Z,2.17
2023-05-28T05:12:40.949Z,2.43
2023-05-28T05:15:42.876Z,1.85
2023-05-28T05:18:44.846Z,2.40
2023-05-28T05:21:46.860Z,2.17
2023-05-28T05:24:50.347Z,3.23
2023-05-28T05:27:52.333Z,2.27
2023-05-28T05:30:54.195Z,2.72
2023-05-28T05:33:56.104Z,2.17
2023-05-28T05:36:59.776Z,2.05
2023-05-28T05:40:01.749Z,2.60
2023-05-28T05:43:03.589Z,2.43
2023-05-28T05:46:06.254Z,2.03
2023-05-28T05:49:08.151Z,2.45
2023-05-28T05:52:10.245Z,2.75
2023-05-28T05:55:12.092Z,2.20
2023-05-28T05:58:15.277Z,2.33
2023-05-28T06:01:18.214Z,2.45
2023-05-28T06:04:20.158Z,2.33
2023-05-28T06:07:22.108Z,2.45
2023-05-28T06:10:24.475Z,2.30
2023-05-28T06:13:27.178Z,2.50
2023-05-28T06:16:29.817Z,2.42
2023-05-28T06:19:32.261Z,2.60
2023-05-28T06:22:34.309Z,2.85
2023-05-28T06:25:36.585Z,2.33
2023-05-28T06:28:38.528Z,2.70
2023-05-28T06:31:41.612Z,2.50
2023-05-28T06:34:43.655Z,2.38
2023-05-28T06:37:45.837Z,2.25
2023-05-28T06:40:47.714Z,2.13
2023-05-28T06:43:49.564Z,2.97
2023-05-28T06:46:51.603Z,2.10
2023-05-28T06:49:53.536Z,2.70
2023-05-28T06:52:55.553Z,2.40
2023-05-28T06:55:58.556Z,2.40
2023-05-28T06:59:00.438Z,2.70
2023-05-28T07:02:02.442Z,2.47
2023-05-28T07:05:07.612Z,2.35
2023-05-28T07:08:09.785Z,2.50
2023-05-28T07:11:12.924Z,2.60
2023-05-28T07:14:14.874Z,2.57
2023-05-28T07:17:16.723Z,2.67
2023-05-28T07:20:18.779Z,2.80
2023-05-28T07:23:20.769Z,2.35
2023-05-28T07:26:23.250Z,2.63
2023-05-28T07:29:26.827Z,2.47
2023-05-28T07:32:28.718Z,2.70
2023-05-28T07:35:30.633Z,2.80
2023-05-28T07:38:32.645Z,2.65
2023-05-28T07:41:35.675Z,2.33
2023-05-28T07:44:37.509Z,2.70
2023-05-28T07:47:39.899Z,2.97
2023-05-28T07:50:42.392Z,2.58
2023-05-28T07:53:47.578Z,2.95
2023-05-28T07:56:49.917Z,3.13
2023-05-28T07:59:52.391Z,2.90
2023-05-28T08:02:54.480Z,3.15
2023-05-28T08:05:56.409Z,3.17
2023-05-28T08:09:01.638Z,2.90
2023-05-28T08:12:04.627Z,2.87
2023-05-28T08:15:06.809Z,3.10
2023-05-28T08:18:08.914Z,3.05
2023-05-28T08:21:10.869Z,3.25
2023-05-28T08:24:12.699Z,2.97
2023-05-28T08:27:14.653Z,3.33
2023-05-28T08:30:16.716Z,3.20
2023-05-28T08:33:18.574Z,3.30
2023-05-28T08:36:20.533Z,3.10
2023-05-28T08:39:25.392Z,3.20
2023-05-28T08:42:28.895Z,3.43
2023-05-28T08:45:31.156Z,3.43
2023-05-28T08:48:36.298Z,3.15
2023-05-28T08:51:38.155Z,3.30
2023-05-28T08:54:42.902Z,3.17
2023-05-28T08:57:45.781Z,3.47
2023-05-28T09:00:48.707Z,4.07
2023-05-28T09:03:50.687Z,3.72
2023-05-28T09:06:52.999Z,3.40
2023-05-28T09:09:57.903Z,3.10
2023-05-28T09:13:00.828Z,3.10
2023-05-28T09:16:02.827Z,3.23
2023-05-28T09:19:05.423Z,3.17
2023-05-28T09:22:07.581Z,3.60
2023-05-28T09:25:12.910Z,3.60
2023-05-28T09:28:15.102Z,3.83
2023-05-28T09:31:16.983Z,3.00
2023-05-28T09:34:19.511Z,3.35
2023-05-28T09:37:21.733Z,3.53
2023-05-28T09:40:26.920Z,3.42
2023-05-28T09:43:31.747Z,3.33
2023-05-28T09:46:34.921Z,3.60
2023-05-28T09:49:36.847Z,3.60
2023-05-28T09:52:42.743Z,3.50
2023-05-28T09:55:44.630Z,3.33
2023-05-28T09:58:46.563Z,4.23
2023-05-28T10:02:12.177Z,3.47
2023-05-28T10:05:15.067Z,3.30
2023-05-28T10:08:17.591Z,3.80
2023-05-28T10:11:24.460Z,3.63
2023-05-28T10:14:26.331Z,4.23
2023-05-28T10:17:28.684Z,4.60
2023-05-28T10:20:31.413Z,3.80
2023-05-28T10:23:34.686Z,3.75
2023-05-28T10:26:36.600Z,4.00
2023-05-28T10:29:42.854Z,4.00
2023-05-28T10:32:44.856Z,4.20
2023-05-28T10:35:54.908Z,3.88
2023-05-28T10:39:03.997Z,3.78
2023-05-28T10:42:09.859Z,3.95
2023-05-28T10:45:15.523Z,4.00
2023-05-28T10:48:18.373Z,3.70
2023-05-28T10:51:20.248Z,3.85
2023-05-28T10:54:24.182Z,3.80
2023-05-28T10:57:26.141Z,3.83
2023-05-28T11:00:29.682Z,3.93
2023-05-28T11:03:55.705Z,3.90
2023-05-28T11:06:57.678Z,3.60
2023-05-28T11:10:00.188Z,4.28
2023-05-28T11:13:02.154Z,3.60
2023-05-28T11:16:08.840Z,3.67
2023-05-28T11:19:10.875Z,3.73
2023-05-28T11:22:13.591Z,3.47
2023-05-28T11:25:15.595Z,3.42
2023-05-28T11:28:19.707Z,4.10
2023-05-28T11:31:21.955Z,4.00
2023-05-28T11:34:23.911Z,3.43
2023-05-28T11:37:30.232Z,3.28
2023-05-28T11:40:36.205Z,3.85
2023-05-28T11:43:38.000Z,4.10
2023-05-28T11:46:40.176Z,4.00
2023-05-28T11:49:42.647Z,3.70
2023-05-28T11:52:45.322Z,3.53
2023-05-28T11:55:47.400Z,3.50
2023-05-28T11:58:50.209Z,3.70
2023-05-28T12:01:52.238Z,3.53
2023-05-28T12:05:01.213Z,3.60
2023-05-28T12:08:03.339Z,3.28
2023-05-28T12:11:07.507Z,2.95
2023-05-28T12:14:13.661Z,3.00
2023-05-28T12:17:17.992Z,3.40
2023-05-28T12:20:20.062Z,2.90
2023-05-28T12:23:22.429Z,3.33
2023-05-28T12:26:24.414Z,3.72
2023-05-28T12:29:27.697Z,3.08
2023-05-28T12:32:30.629Z,3.07
2023-05-28T12:35:32.714Z,2.90
2023-05-28T12:38:34.645Z,2.88
2023-05-28T12:41:36.594Z,3.40
2023-05-28T12:44:38.451Z,3.20
2023-05-28T12:47:40.446Z,3.33
2023-05-28T12:50:42.441Z,3.17
2023-05-28T12:53:44.322Z,3.15
2023-05-28T12:56:46.794Z,3.42
2023-05-28T12:59:48.914Z,3.60
2023-05-28T13:02:51.367Z,3.13
2023-05-28T13:05:53.560Z,3.10
2023-05-28T13:08:55.476Z,3.00
2023-05-28T13:11:57.527Z,3.08
2023-05-28T13:14:59.626Z,3.03
2023-05-28T13:18:01.530Z,3.10
2023-05-28T13:21:03.749Z,2.70
2023-05-28T13:24:07.245Z,2.88
2023-05-28T13:27:09.502Z,3.00
2023-05-28T13:30:11.896Z,3.20
2023-05-28T13:33:13.793Z,2.97
2023-05-28T13:36:15.898Z,2.87
2023-05-28T13:39:17.824Z,3.25
2023-05-28T13:42:21.080Z,2.85
2023-05-28T13:45:23.119Z,3.28
2023-05-28T13:48:26.674Z,3.07
2023-05-28T13:51:28.787Z,2.90
2023-05-28T13:54:31.499Z,3.00
2023-05-28T13:57:33.366Z,3.50
2023-05-28T14:00:39.128Z,2.70
2023-05-28T14:03:46.802Z,2.97
2023-05-28T14:06:48.981Z,2.57
2023-05-28T14:09:50.869Z,3.20
2023-05-28T14:12:53.023Z,3.00
2023-05-28T14:15:54.889Z,2.90
2023-05-28T14:18:56.827Z,3.57
2023-05-28T14:21:58.906Z,2.67
2023-05-28T14:25:00.825Z,2.72
2023-05-28T14:28:11.220Z,2.90
2023-05-28T14:31:14.102Z,2.60
2023-05-28T14:34:16.008Z,2.80
2023-05-28T14:37:20.148Z,2.60
2023-05-28T14:40:22.036Z,3.03
2023-05-28T14:43:23.878Z,3.22
2023-05-28T14:46:25.937Z,2.80
2023-05-28T14:49:27.780Z,2.97
2023-05-28T14:52:32.440Z,3.00
2023-05-28T14:55:34.632Z,2.80
2023-05-28T14:58:37.057Z,3.35
2023-05-28T15:01:38.969Z,2.60
2023-05-28T15:04:45.513Z,3.30
2023-05-28T15:07:47.717Z,2.60
2023-05-28T15:10:49.945Z,2.70
2023-05-28T15:13:52.046Z,2.90
2023-05-28T15:16:53.989Z,2.80
2023-05-28T15:19:55.868Z,3.50
2023-05-28T15:22:57.842Z,2.70
2023-05-28T15:25:59.877Z,2.50
2023-05-28T15:29:01.836Z,3.00
2023-05-28T15:32:04.944Z,2.72
2023-05-28T15:35:07.652Z,2.50
2023-05-28T15:38:09.958Z,2.77
2023-05-28T15:41:11.836Z,2.80
2023-05-28T15:44:13.926Z,2.30
2023-05-28T15:47:16.054Z,2.30
2023-05-28T15:50:18.050Z,2.60
2023-05-28T15:53:20.410Z,3.10
2023-05-28T15:56:22.542Z,2.67
2023-05-28T15:59:24.582Z,2.75
2023-05-28T16:02:26.507Z,2.67
2023-05-28T16:05:28.771Z,2.90
2023-05-28T16:08:31.032Z,3.10
2023-05-28T16:11:33.282Z,2.78
2023-05-28T16:14:35.571Z,2.58
2023-05-28T16:17:40.854Z,2.67
2023-05-28T16:20:43.245Z,2.80
2023-05-28T16:23:45.089Z,2.50
2023-05-28T16:26:49.391Z,2.75
2023-05-28T16:29:51.406Z,2.72
2023-05-28T16:32:54.622Z,2.80
2023-05-28T16:35:57.227Z,2.70
2023-05-28T16:38:59.882Z,2.53
2023-05-28T16:42:02.616Z,3.00
2023-05-28T16:45:05.228Z,3.05
2023-05-28T16:48:08.506Z,3.08
2023-05-28T16:51:10.742Z,3.10
2023-05-28T16:54:12.721Z,2.80
2023-05-28T16:57:14.765Z,2.58
2023-05-28T17:00:21.994Z,2.50
2023-05-28T17:03:23.982Z,2.47
2023-05-28T17:06:29.237Z,2.70
2023-05-28T17:09:31.214Z,2.53
2023-05-28T17:12:33.048Z,2.53
2023-05-28T17:15:35.451Z,2.40
2023-05-28T17:18:38.246Z,2.50
2023-05-28T17:21:41.213Z,2.47
2023-05-28T17:24:43.130Z,2.37
2023-05-28T17:27:45.058Z,2.30
2023-05-28T17:30:46.864Z,2.42
2023-05-28T17:33:49.513Z,2.70
2023-05-28T17:36:51.552Z,2.77
2023-05-28T17:39:53.596Z,2.77
2023-05-28T17:42:55.650Z,2.45
2023-05-28T17:45:58.343Z,2.90
2023-05-28T17:49:00.890Z,2.63
2023-05-28T17:52:02.866Z,2.97
2023-05-28T17:55:05.736Z,2.80
2023-05-28T17:58:07.608Z,2.80
2023-05-28T18:01:09.543Z,3.17
2023-05-28T18:04:14.647Z,2.65
2023-05-28T18:07:16.635Z,3.20
2023-05-28T18:10:18.510Z,3.10
2023-05-28T18:13:20.556Z,3.05
2023-05-28T18:16:22.534Z,3.17
2023-05-28T18:19:24.546Z,3.20
2023-05-28T18:22:26.677Z,3.33
2023-05-28T18:25:30.373Z,3.23
2023-05-28T18:28:32.320Z,2.83
2023-05-28T18:31:34.635Z,2.95
2023-05-28T18:34:36.772Z,2.85
2023-05-28T18:37:38.847Z,3.30
2023-05-28T18:40:40.925Z,3.30
2023-05-28T18:43:42.840Z,3.10
2023-05-28T18:46:44.872Z,3.83
2023-05-28T18:49:46.885Z,3.10
2023-05-28T18:52:48.825Z,3.70
2023-05-28T18:55:51.615Z,3.30
2023-05-28T18:58:54.510Z,3.35
2023-05-28T19:01:56.452Z,3.83
2023-05-28T19:04:58.449Z,3.72
2023-05-28T19:08:00.295Z,4.00
2023-05-28T19:11:02.243Z,3.80
2023-05-28T19:14:04.271Z,3.80
2023-05-28T19:17:06.222Z,3.92
2023-05-28T19:20:12.190Z,3.97
2023-05-28T19:23:14.236Z,3.80
2023-05-28T19:26:16.143Z,3.47
2023-05-28T19:29:18.170Z,3.85
2023-05-28T19:32:20.138Z,3.65
2023-05-28T19:35:22.028Z,3.45
2023-05-28T19:38:23.947Z,3.37
2023-05-28T19:41:26.716Z,4.10
2023-05-28T19:44:29.165Z,4.10
2023-05-28T19:47:31.089Z,4.20
2023-05-28T19:50:33.183Z,3.50
2023-05-28T19:53:35.028Z,3.60
2023-05-28T19:56:36.908Z,3.70
2023-05-28T19:59:40.059Z,3.72
2023-05-28T20:02:42.161Z,3.55
2023-05-28T20:05:47.227Z,4.28
2023-05-28T20:08:49.661Z,4.10
2023-05-28T20:11:51.636Z,4.30
2023-05-28T20:14:53.622Z,4.05
2023-05-28T20:17:55.939Z,4.53
2023-05-28T20:20:58.194Z,4.03
2023-05-28T20:24:01.539Z,3.93
2023-05-28T20:27:03.689Z,4.27
2023-05-28T20:30:06.627Z,4.20
2023-05-28T20:33:10.332Z,4.38
2023-05-28T20:36:19.323Z,4.80
2023-05-28T20:39:22.146Z,4.43
2023-05-28T20:42:24.169Z,4.83
2023-05-28T20:45:26.225Z,4.70
2023-05-28T20:48:28.500Z,4.15
2023-05-28T20:51:30.514Z,4.53
2023-05-28T20:54:32.460Z,4.60
2023-05-28T20:57:44.538Z,4.53
2023-05-28T21:00:46.477Z,4.70
2023-05-28T21:03:48.476Z,4.78
2023-05-28T21:06:50.337Z,4.93
2023-05-28T21:09:52.269Z,4.90
2023-05-28T21:12:54.157Z,4.57
2023-05-28T21:15:56.342Z,4.90
2023-05-28T21:18:58.230Z,4.57
2023-05-28T21:22:04.006Z,4.28
2023-05-28T21:25:06.245Z,5.00
2023-05-28T21:28:08.205Z,4.80
2023-05-28T21:31:10.296Z,4.43
2023-05-28T21:34:12.136Z,4.50
2023-05-28T21:37:18.852Z,4.55
2023-05-28T21:40:22.293Z,4.50
2023-05-28T21:43:24.671Z,4.20
2023-05-28T21:46:26.806Z,4.65
2023-05-28T21:49:28.725Z,4.10
2023-05-28T21:52:33.839Z,4.70
2023-05-28T21:55:36.267Z,5.20
2023-05-28T21:58:38.138Z,4.50
2023-05-28T22:01:40.483Z,4.50
2023-05-28T22:04:42.946Z,4.57
2023-05-28T22:07:50.586Z,4.47
2023-05-28T22:10:52.417Z,4.93
2023-05-28T22:13:55.009Z,4.33
2023-05-28T22:16:57.071Z,4.53
2023-05-28T22:20:00.176Z,4.53
2023-05-28T22:23:05.595Z,4.35
2023-05-28T22:26:07.499Z,4.67
2023-05-28T22:29:09.474Z,3.90
2023-05-28T22:32:11.461Z,3.95
2023-05-28T22:35:13.605Z,4.60
2023-05-28T22:38:15.735Z,4.53
2023-05-28T22:41:17.568Z,4.30
2023-05-28T22:44:20.233Z,4.40
2023-05-28T22:47:22.207Z,4.35
2023-05-28T22:50:24.107Z,4.20
2023-05-28T22:53:29.218Z,4.07
2023-05-28T22:56:31.155Z,4.13
2023-05-28T22:59:33.272Z,4.97
2023-05-28T23:02:35.233Z,3.88
2023-05-28T23:05:37.274Z,4.38
2023-05-28T23:08:43.268Z,4.13
2023-05-28T23:11:45.156Z,4.40
2023-05-28T23:14:47.100Z,4.50
2023-05-28T23:17:52.238Z,4.30
2023-05-28T23:20:54.204Z,4.95
2023-05-28T23:24:00.148Z,4.60
2023-05-28T23:27:02.812Z,4.60
2023-05-28T23:30:05.126Z,4.37
2023-05-28T23:33:07.190Z,4.05
2023-05-28T23:36:09.637Z,4.63
2023-05-28T23:39:16.119Z,4.03
2023-05-28T23:42:17.913Z,4.10
2023-05-28T23:45:19.788Z,4.17
2023-05-28T23:48:21.671Z,4.25
2023-05-28T23:51:23.494Z,4.15
2023-05-28T23:54:28.223Z,4.10
2023-05-28T23:57:30.134Z,4.30
